Time;durP1;ratioP1;P1;durP2;ratioP2;P2;SDS_P1;SDS_P2;PMS_P1;PMS_P2;Temp;Humidity;BMP_temperature;BMP_pressure;BME280_temperature;BME280_humidity;BME280_pressure;Samples;Min_cycle;Max_cycle;Signal;HPM_P1;HPM_P2
2023/11/11 00:00:31;;;;;;;0.37;0.30;;;;;;;5.64;91.98;93872.88;6134518;23;20205;-81
2023/11/11 00:02:57;;;;;;;0.70;0.60;;;;;;;5.75;91.76;93866.66;6158485;23;20162;-80
2023/11/11 00:05:23;;;;;;;0.83;0.47;;;;;;;5.61;91.76;93862.09;6133543;23;20169;-80
2023/11/11 00:07:48;;;;;;;0.40;0.40;;;;;;;5.77;92.44;93872.44;6134280;23;20155;-82
2023/11/11 00:10:14;;;;;;;0.40;0.40;;;;;;;5.72;91.83;93877.25;6134337;23;20178;-80
2023/11/11 00:12:39;;;;;;;0.20;0.20;;;;;;;5.73;92.89;93876.28;6134230;23;20166;-81
2023/11/11 00:15:09;;;;;;;0.30;0.30;;;;;;;5.90;92.30;93888.25;6158594;23;20504;-80
2023/11/11 00:17:34;;;;;;;0.50;0.50;;;;;;;5.96;91.36;93887.63;6158461;23;20513;-82
2023/11/11 00:20:00;;;;;;;0.43;0.43;;;;;;;5.63;93.04;93880.78;6158815;23;20197;-79
2023/11/11 00:22:25;;;;;;;0.83;0.80;;;;;;;5.93;91.87;93889.72;6158448;23;20193;-81
2023/11/11 00:24:50;;;;;;;0.67;0.63;;;;;;;6.00;92.57;93892.44;6158174;23;20662;-80
2023/11/11 00:27:16;;;;;;;1.10;0.70;;;;;;;5.96;92.68;93890.19;6186094;23;20174;-80
2023/11/11 00:29:41;;;;;;;0.70;0.70;;;;;;;6.05;91.46;93885.03;6158537;23;20281;-80
2023/11/11 00:32:07;;;;;;;1.00;0.80;;;;;;;6.15;91.86;93878.75;6158771;23;20474;-80
2023/11/11 00:34:32;;;;;;;1.37;1.10;;;;;;;6.09;92.03;93894.84;6133813;23;20593;-81
2023/11/11 00:36:58;;;;;;;1.27;1.10;;;;;;;5.97;92.32;93881.50;6182462;23;20163;-81
2023/11/11 00:39:24;;;;;;;1.33;1.23;;;;;;;6.18;91.93;93886.19;6157846;23;20158;-79
2023/11/11 00:41:49;;;;;;;1.80;1.50;;;;;;;5.88;92.99;93884.19;6158871;23;20740;-81
2023/11/11 00:44:14;;;;;;;2.10;1.10;;;;;;;6.11;91.65;93881.84;6158675;23;20161;-80
2023/11/11 00:46:40;;;;;;;1.03;1.00;;;;;;;6.27;90.71;93871.50;6158526;23;20196;-80
2023/11/11 00:49:06;;;;;;;1.20;1.10;;;;;;;6.16;91.08;93869.25;6185782;23;20161;-79
2023/11/11 00:51:38;;;;;;;1.67;1.20;;;;;;;6.16;90.63;93866.69;6134577;23;20188;-79
2023/11/11 00:54:05;;;;;;;1.23;1.10;;;;;;;6.03;90.40;93876.69;6159353;23;20135;-79
2023/11/11 00:56:30;;;;;;;1.13;1.03;;;;;;;5.94;90.72;93874.09;6133128;23;20228;-81
2023/11/11 00:58:56;;;;;;;1.20;1.00;;;;;;;5.84;90.45;93868.25;6134148;23;20159;-80
2023/11/11 01:01:21;;;;;;;2.00;0.70;;;;;;;5.93;89.59;93895.66;6158301;23;20178;-79
2023/11/11 01:03:47;;;;;;;1.10;0.77;;;;;;;5.88;89.11;93890.16;6133195;23;20161;-80
2023/11/11 01:06:12;;;;;;;0.80;0.80;;;;;;;5.79;88.68;93896.25;6160092;23;20170;-79
2023/11/11 01:08:38;;;;;;;1.00;0.70;;;;;;;5.89;88.48;93906.41;6159175;23;20473;-79
2023/11/11 01:11:03;;;;;;;1.87;0.50;;;;;;;5.73;88.60;93917.47;6159687;23;20224;-78
2023/11/11 01:13:28;;;;;;;0.67;0.67;;;;;;;5.91;87.38;93918.19;6183088;23;20583;-79
2023/11/11 01:15:59;;;;;;;0.70;0.60;;;;;;;5.98;87.38;93910.63;6132358;23;20161;-78
2023/11/11 01:18:27;;;;;;;0.63;0.63;;;;;;;6.04;87.95;93925.47;6133814;23;20151;-80
2023/11/11 01:20:53;;;;;;;1.00;0.70;;;;;;;5.87;88.59;93939.25;6157745;23;20198;-80
2023/11/11 01:23:18;;;;;;;1.00;0.73;;;;;;;5.77;88.88;93944.56;6157016;23;20151;-78
2023/11/11 01:25:43;;;;;;;0.70;0.70;;;;;;;5.88;88.44;93941.69;6156241;23;20185;-80
2023/11/11 01:28:09;;;;;;;1.23;0.90;;;;;;;5.83;88.54;93948.25;6157224;23;20212;-79
2023/11/11 01:30:35;;;;;;;0.90;0.73;;;;;;;5.78;88.99;93953.09;6156986;23;20166;-81
2023/11/11 01:33:00;;;;;;;1.10;0.80;;;;;;;5.88;88.44;93931.38;6134520;23;20159;-79
2023/11/11 01:35:25;;;;;;;0.60;0.60;;;;;;;5.76;87.35;93942.16;6155939;23;20173;-79
2023/11/11 01:37:51;;;;;;;0.97;0.70;;;;;;;5.82;86.59;93954.38;6157716;23;20171;-79
2023/11/11 01:40:16;;;;;;;0.70;0.63;;;;;;;5.87;85.66;93970.97;6157366;23;20241;-78
2023/11/11 01:42:41;;;;;;;1.57;0.60;;;;;;;5.85;85.40;93969.53;6157137;23;20162;-79
2023/11/11 01:45:07;;;;;;;1.20;0.67;;;;;;;5.86;85.81;93976.28;6156451;23;20697;-80
2023/11/11 01:47:32;;;;;;;1.10;0.73;;;;;;;5.70;85.88;93979.63;6134440;23;20161;-79
2023/11/11 01:49:58;;;;;;;2.67;0.90;;;;;;;5.86;86.17;93995.13;6159141;23;20186;-79
2023/11/11 01:52:23;;;;;;;1.53;0.90;;;;;;;5.68;87.75;94002.16;6159095;23;20155;-78
2023/11/11 01:54:49;;;;;;;0.87;0.70;;;;;;;5.66;87.28;93992.00;6185710;23;20151;-79
2023/11/11 01:57:14;;;;;;;0.80;0.60;;;;;;;5.79;86.91;94019.91;6158926;23;20186;-79
2023/11/11 01:59:40;;;;;;;0.80;0.60;;;;;;;5.69;85.90;94009.72;6159121;23;20264;-79
2023/11/11 02:02:05;;;;;;;0.60;0.60;;;;;;;5.79;86.20;94030.19;6158947;23;20175;-78
2023/11/11 02:04:31;;;;;;;2.23;0.73;;;;;;;5.75;87.08;94018.59;6158937;23;20595;-79
2023/11/11 02:06:56;;;;;;;1.03;0.60;;;;;;;5.68;86.84;94033.88;6158674;23;20594;-80
2023/11/11 02:09:22;;;;;;;1.20;0.60;;;;;;;5.64;86.10;94042.03;6159588;23;20709;-78
2023/11/11 02:11:49;;;;;;;0.97;0.63;;;;;;;5.73;86.65;94035.16;6159484;23;20158;-79
2023/11/11 02:14:15;;;;;;;0.43;0.40;;;;;;;5.80;86.80;94042.13;6158940;23;20154;-80
2023/11/11 02:16:40;;;;;;;0.40;0.40;;;;;;;5.82;86.59;94037.59;6133662;23;20181;-80
2023/11/11 02:19:06;;;;;;;0.60;0.60;;;;;;;5.83;88.41;94041.81;6134372;23;20208;-79
2023/11/11 02:21:31;;;;;;;1.00;1.00;;;;;;;5.78;89.77;94033.75;6158837;23;20210;-79
2023/11/11 02:24:00;;;;;;;0.73;0.73;;;;;;;5.87;90.30;94037.97;6158788;23;20505;-78
2023/11/11 02:26:26;;;;;;;1.90;0.80;;;;;;;5.66;91.08;94019.53;6134421;23;20178;-79
2023/11/11 02:28:51;;;;;;;0.70;0.70;;;;;;;5.74;91.16;94047.06;6159004;23;20159;-79
2023/11/11 02:31:17;;;;;;;1.73;0.80;;;;;;;5.71;91.74;94037.91;6159707;23;20198;-78
2023/11/11 02:33:43;;;;;;;0.90;0.90;;;;;;;5.69;91.47;94044.97;6159193;23;20637;-80
2023/11/11 02:36:09;;;;;;;2.00;1.00;;;;;;;5.55;92.00;94037.81;6158061;23;20163;-78
2023/11/11 02:38:35;;;;;;;1.10;1.00;;;;;;;5.61;91.84;94024.34;6158683;23;20261;-80
2023/11/11 02:41:00;;;;;;;1.20;1.10;;;;;;;5.62;92.06;94039.63;6133538;23;20185;-80
2023/11/11 02:43:25;;;;;;;1.10;0.90;;;;;;;5.73;91.88;94042.88;6159957;23;20155;-79
2023/11/11 02:45:51;;;;;;;0.80;0.80;;;;;;;5.80;91.02;94043.88;6158728;23;20170;-82
2023/11/11 02:48:16;;;;;;;1.13;1.03;;;;;;;5.65;91.76;94041.91;6159802;23;20162;-80
2023/11/11 02:50:41;;;;;;;1.20;1.10;;;;;;;5.85;90.85;94036.50;6158551;23;20515;-79
2023/11/11 02:53:06;;;;;;;1.27;1.17;;;;;;;5.68;92.26;94056.25;6158289;23;20622;-81
2023/11/11 02:55:32;;;;;;;2.87;1.30;;;;;;;5.67;91.41;94052.06;6157227;23;20170;-79
2023/11/11 02:57:57;;;;;;;2.43;1.40;;;;;;;5.48;91.23;94067.72;6157853;23;20169;-79
2023/11/11 03:00:22;;;;;;;1.23;1.13;;;;;;;5.66;90.09;94073.63;6158220;23;20202;-80
2023/11/11 03:02:48;;;;;;;3.87;1.37;;;;;;;5.69;89.88;94073.31;6158353;23;20241;-79
2023/11/11 03:05:13;;;;;;;3.13;1.30;;;;;;;5.67;89.21;94072.66;6132926;23;20162;-79
2023/11/11 03:07:38;;;;;;;2.07;1.87;;;;;;;5.80;89.44;94078.19;6158550;23;20237;-80
2023/11/11 03:10:05;;;;;;;2.07;1.27;;;;;;;5.88;89.90;94088.53;6158267;23;20540;-79
2023/11/11 03:12:32;;;;;;;1.77;1.33;;;;;;;5.77;90.49;94099.09;6157855;23;20161;-80
2023/11/11 03:14:59;;;;;;;2.63;1.50;;;;;;;5.78;90.79;94113.59;6157835;23;20899;-80
2023/11/11 03:17:26;;;;;;;2.40;1.50;;;;;;;5.75;90.21;94102.81;6158344;23;20216;-80
2023/11/11 03:19:53;;;;;;;1.87;1.37;;;;;;;5.76;90.08;94118.09;6182346;23;20664;-80
2023/11/11 03:22:19;;;;;;;3.00;1.63;;;;;;;5.88;89.46;94128.94;6132819;23;20523;-80
2023/11/11 03:24:44;;;;;;;1.70;1.47;;;;;;;5.79;90.02;94137.59;6133231;23;20168;-79
2023/11/11 03:27:09;;;;;;;2.73;1.80;;;;;;;5.87;89.06;94125.56;6133037;23;20721;-80
2023/11/11 03:29:34;;;;;;;2.23;1.60;;;;;;;5.95;89.08;94130.78;6157681;23;20158;-81
2023/11/11 03:32:00;;;;;;;3.87;1.77;;;;;;;5.75;89.66;94149.97;6134517;23;20163;-80
2023/11/11 03:34:25;;;;;;;2.53;1.90;;;;;;;5.64;91.17;94139.91;6159292;23;20151;-81
2023/11/11 03:36:51;;;;;;;3.63;1.80;;;;;;;5.86;90.37;94152.28;6158657;23;20237;-81
2023/11/11 03:39:16;;;;;;;2.60;1.77;;;;;;;5.95;90.39;94156.56;6158979;23;20555;-80
2023/11/11 03:41:42;;;;;;;2.77;1.80;;;;;;;5.65;91.56;94151.81;6159017;23;20186;-80
2023/11/11 03:44:09;;;;;;;2.77;2.10;;;;;;;5.85;90.85;94167.91;6159868;23;20656;-79
2023/11/11 03:46:34;;;;;;;3.33;2.17;;;;;;;5.75;91.26;94173.16;6135010;23;20154;-80
2023/11/11 03:48:59;;;;;;;2.50;2.30;;;;;;;5.82;90.97;94168.19;6185484;23;20150;-80
2023/11/11 03:51:25;;;;;;;4.73;2.30;;;;;;;5.88;90.47;94175.31;6159230;23;20177;-81
2023/11/11 03:53:50;;;;;;;3.30;2.43;;;;;;;5.80;91.33;94177.84;6135289;23;20162;-79
2023/11/11 03:56:18;;;;;;;4.87;2.20;;;;;;;5.63;91.82;94174.34;6159488;23;20475;-81
2023/11/11 03:58:44;;;;;;;2.43;2.20;;;;;;;5.85;90.81;94186.75;6135148;23;20169;-80
2023/11/11 04:01:09;;;;;;;3.00;2.40;;;;;;;5.56;91.44;94199.88;6159201;23;20244;-81
2023/11/11 04:03:36;;;;;;;5.53;2.83;;;;;;;5.59;91.93;94209.09;6134278;23;20228;-79
2023/11/11 04:06:02;;;;;;;3.63;2.80;;;;;;;5.54;93.45;94219.03;6158811;23;20162;-80
2023/11/11 04:08:27;;;;;;;3.07;2.57;;;;;;;5.46;93.58;94229.25;6158521;23;20645;-78
2023/11/11 04:10:53;;;;;;;4.13;3.03;;;;;;;5.57;93.31;94232.44;6158335;23;20264;-79
2023/11/11 04:13:19;;;;;;;4.03;2.53;;;;;;;5.56;93.39;94233.38;6159031;23;20158;-82
2023/11/11 04:15:44;;;;;;;3.63;2.70;;;;;;;5.57;93.05;94236.78;6183035;23;20177;-80
2023/11/11 04:18:10;;;;;;;2.77;2.30;;;;;;;5.70;92.67;94262.94;6158757;23;20142;-80
2023/11/11 04:20:35;;;;;;;4.20;2.60;;;;;;;5.47;93.37;94254.03;6134826;23;20194;-79
2023/11/11 04:23:00;;;;;;;4.37;2.90;;;;;;;5.55;92.61;94265.22;6161577;23;20163;-80
2023/11/11 04:25:26;;;;;;;5.63;2.10;;;;;;;5.49;91.84;94265.84;6137055;23;20224;-79
2023/11/11 04:27:51;;;;;;;3.87;2.63;;;;;;;5.61;91.55;94274.94;6137609;23;20181;-79
2023/11/11 04:30:16;;;;;;;2.77;2.40;;;;;;;5.49;92.02;94285.63;6162812;23;20739;-80
2023/11/11 04:32:42;;;;;;;3.13;2.50;;;;;;;5.54;91.68;94289.34;6162249;23;20233;-80
2023/11/11 04:35:07;;;;;;;5.10;2.47;;;;;;;5.40;92.29;94288.13;6161302;23;20162;-80
2023/11/11 04:37:33;;;;;;;4.03;2.90;;;;;;;5.51;91.78;94297.38;6186215;23;20173;-81
2023/11/11 04:39:59;;;;;;;3.87;2.47;;;;;;;5.31;92.96;94293.34;6163975;23;20259;-80
2023/11/11 04:42:24;;;;;;;5.33;2.80;;;;;;;5.56;91.36;94296.94;6160931;23;20190;-80
2023/11/11 04:44:51;;;;;;;4.60;3.17;;;;;;;5.61;91.38;94303.28;6160903;23;20201;-80
2023/11/11 04:47:18;;;;;;;4.47;3.17;;;;;;;5.61;91.42;94312.75;6138530;23;20158;-81
2023/11/11 04:49:43;;;;;;;4.87;2.93;;;;;;;5.42;92.58;94303.41;6161466;23;20213;-79
2023/11/11 04:52:10;;;;;;;4.43;3.00;;;;;;;5.34;92.83;94311.06;6136600;23;20638;-81
2023/11/11 04:54:35;;;;;;;4.67;2.90;;;;;;;5.34;92.86;94316.22;6162210;23;20165;-79
2023/11/11 04:57:01;;;;;;;5.10;3.00;;;;;;;5.44;92.17;94334.97;6135581;23;20173;-80
2023/11/11 04:59:26;;;;;;;5.87;3.63;;;;;;;5.45;92.68;94333.22;6161426;23;20158;-81
2023/11/11 05:01:53;;;;;;;5.10;3.30;;;;;;;5.48;92.54;94340.63;6137047;23;20633;-79
2023/11/11 05:04:19;;;;;;;4.40;3.73;;;;;;;5.53;92.71;94346.16;6136292;23;20168;-80
2023/11/11 05:06:45;;;;;;;5.03;3.13;;;;;;;5.53;92.10;94353.88;6135083;23;20233;-79
2023/11/11 05:09:10;;;;;;;3.77;3.00;;;;;;;5.61;91.54;94359.94;6160352;23;20575;-80
2023/11/11 05:11:37;;;;;;;6.03;3.03;;;;;;;5.51;92.24;94359.19;6135197;23;20229;-78
2023/11/11 05:14:06;;;;;;;3.73;2.90;;;;;;;5.51;92.08;94360.97;6160573;23;20239;-79
2023/11/11 05:16:39;;;;;;;4.13;2.50;;;;;;;5.46;92.50;94363.16;6135500;23;20727;-80
2023/11/11 05:19:08;;;;;;;5.67;3.53;;;;;;;5.33;92.38;94364.31;6162817;23;20131;-79
2023/11/11 05:21:33;;;;;;;4.13;3.20;;;;;;;5.28;92.96;94366.50;6160664;23;20264;-79
2023/11/11 05:23:59;;;;;;;4.30;3.00;;;;;;;5.26;92.09;94367.59;6139644;23;20609;-79
2023/11/11 05:26:24;;;;;;;4.23;2.97;;;;;;;5.14;92.41;94367.00;6138041;23;20617;-80
2023/11/11 05:28:50;;;;;;;5.03;3.43;;;;;;;5.28;91.45;94370.84;6163404;23;20163;-79
2023/11/11 05:31:15;;;;;;;4.73;3.03;;;;;;;5.08;92.74;94372.72;6188010;23;20184;-80
2023/11/11 05:33:40;;;;;;;6.53;3.20;;;;;;;5.25;91.57;94381.44;6161677;23;20155;-79
2023/11/11 05:36:08;;;;;;;4.33;3.23;;;;;;;5.32;90.92;94385.06;6187213;23;20178;-80
2023/11/11 05:38:33;;;;;;;4.40;3.00;;;;;;;5.13;91.78;94392.88;6136941;23;20169;-80
2023/11/11 05:40:59;;;;;;;3.10;2.80;;;;;;;4.96;91.87;94379.00;6161062;23;20182;-81
2023/11/11 05:43:24;;;;;;;4.57;3.03;;;;;;;5.12;91.57;94381.75;6186265;23;20205;-78
2023/11/11 05:45:50;;;;;;;6.10;3.20;;;;;;;5.02;91.35;94393.84;6160473;23;20154;-78
2023/11/11 05:48:15;;;;;;;5.13;3.20;;;;;;;5.18;91.02;94394.06;6185269;23;20159;-80
2023/11/11 05:50:40;;;;;;;9.07;3.70;;;;;;;5.20;90.90;94399.06;6160126;23;20167;-80
2023/11/11 05:53:06;;;;;;;6.77;3.93;;;;;;;5.13;91.65;94398.84;6135686;23;20154;-80
2023/11/11 05:55:32;;;;;;;4.33;3.27;;;;;;;5.05;92.12;94406.44;6186859;23;20164;-79
2023/11/11 05:57:57;;;;;;;4.97;3.33;;;;;;;5.07;91.30;94405.34;6161159;23;20154;-80
2023/11/11 06:00:22;;;;;;;3.03;2.50;;;;;;;5.07;91.22;94407.94;6161093;23;20201;-79
2023/11/11 06:02:48;;;;;;;5.20;2.70;;;;;;;5.18;90.09;94414.66;6160076;23;20185;-80
2023/11/11 06:05:14;;;;;;;4.97;2.37;;;;;;;5.22;90.08;94418.56;6159168;23;20155;-81
2023/11/11 06:07:39;;;;;;;4.37;2.70;;;;;;;5.22;89.98;94421.16;6186467;23;20233;-80
2023/11/11 06:10:07;;;;;;;4.30;2.93;;;;;;;5.05;90.83;94427.03;6160888;23;20170;-80
2023/11/11 06:12:33;;;;;;;3.40;3.07;;;;;;;5.07;90.32;94420.78;6135507;23;20162;-81
2023/11/11 06:14:58;;;;;;;6.40;3.40;;;;;;;5.13;90.01;94416.03;6134662;23;20165;-80
2023/11/11 06:17:23;;;;;;;2.77;2.40;;;;;;;5.07;90.42;94428.50;6159366;23;20177;-80
2023/11/11 06:19:49;;;;;;;3.97;2.60;;;;;;;5.00;90.38;94427.44;6159654;23;20657;-80
2023/11/11 06:22:14;;;;;;;5.37;2.83;;;;;;;5.09;89.96;94425.78;6159460;23;20178;-81
2023/11/11 06:24:39;;;;;;;3.37;2.30;;;;;;;4.99;90.29;94433.53;6135938;23;20186;-80
2023/11/11 06:27:05;;;;;;;5.57;2.47;;;;;;;4.97;90.37;94434.66;6135457;23;20484;-80
2023/11/11 06:29:30;;;;;;;4.83;4.17;;;;;;;4.98;90.07;94431.94;6185158;23;20496;-80
2023/11/11 06:31:56;;;;;;;4.77;2.70;;;;;;;4.93;89.94;94428.97;6159773;23;20152;-80
2023/11/11 06:34:21;;;;;;;5.97;4.57;;;;;;;4.90;90.10;94439.53;6159663;23;20161;-79
2023/11/11 06:36:46;;;;;;;3.00;2.70;;;;;;;4.98;89.59;94438.84;6158793;23;20158;-80
2023/11/11 06:39:13;;;;;;;4.40;2.40;;;;;;;5.05;89.03;94445.06;6186520;23;20213;-80
2023/11/11 06:41:38;;;;;;;3.00;2.30;;;;;;;4.96;88.83;94433.03;6135153;23;20189;-81
2023/11/11 06:44:05;;;;;;;3.23;2.57;;;;;;;4.68;90.00;94445.00;6159498;23;20185;-79
2023/11/11 06:46:30;;;;;;;2.37;2.17;;;;;;;4.82;89.58;94467.72;6134801;23;20162;-79
2023/11/11 06:48:57;;;;;;;4.47;2.93;;;;;;;4.94;89.39;94445.19;6159913;23;20165;-79
2023/11/11 06:51:23;;;;;;;5.13;2.50;;;;;;;4.90;89.53;94454.16;6161073;23;20859;-78
2023/11/11 06:53:49;;;;;;;5.53;2.70;;;;;;;4.85;89.91;94444.28;6139006;23;20158;-80
2023/11/11 06:56:15;;;;;;;3.97;3.43;;;;;;;5.01;88.87;94441.13;6188238;23;20170;-80
2023/11/11 06:58:41;;;;;;;5.80;2.87;;;;;;;4.94;89.04;94453.72;6162220;23;20158;-80
2023/11/11 07:01:07;;;;;;;6.77;3.43;;;;;;;4.97;88.98;94460.38;6163548;23;20224;-81
2023/11/11 07:03:35;;;;;;;4.53;3.37;;;;;;;4.68;89.73;94471.56;6163505;23;20514;-80
2023/11/11 07:06:00;;;;;;;8.87;3.50;;;;;;;4.87;89.71;94477.59;6138657;23;20575;-79
2023/11/11 07:08:28;;;;;;;6.13;3.40;;;;;;;4.98;89.38;94478.25;6163160;23;20165;-79
2023/11/11 07:10:54;;;;;;;5.07;3.70;;;;;;;5.01;88.87;94495.16;6138035;23;20198;-79
2023/11/11 07:13:23;;;;;;;5.83;3.90;;;;;;;5.00;89.84;94496.09;6162524;23;20154;-80
2023/11/11 07:15:49;;;;;;;5.67;4.10;;;;;;;5.07;89.53;94502.31;6161367;23;20157;-79
2023/11/11 07:18:15;;;;;;;6.80;4.17;;;;;;;5.13;88.53;94506.94;6161776;23;20143;-79
2023/11/11 07:20:41;;;;;;;4.50;3.60;;;;;;;5.15;88.17;94509.34;6159223;23;20649;-80
2023/11/11 07:23:06;;;;;;;6.03;3.40;;;;;;;5.22;87.66;94529.25;6161497;23;20582;-79
2023/11/11 07:25:35;;;;;;;6.60;3.50;;;;;;;5.22;87.80;94524.09;6159599;23;20154;-80
2023/11/11 07:28:04;;;;;;;5.90;3.70;;;;;;;5.42;86.20;94542.06;6160997;23;20154;-81
2023/11/11 07:30:29;;;;;;;4.63;3.67;;;;;;;5.24;87.33;94537.63;6135784;23;20189;-77
2023/11/11 07:32:57;;;;;;;4.47;3.73;;;;;;;5.32;87.06;94532.59;6135729;23;20249;-80
2023/11/11 07:35:22;;;;;;;4.60;3.83;;;;;;;5.40;86.46;94552.50;6160309;23;20158;-79
2023/11/11 07:37:49;;;;;;;6.00;4.33;;;;;;;5.39;86.36;94538.81;6187312;23;20621;-80
2023/11/11 07:40:15;;;;;;;8.47;4.77;;;;;;;5.47;86.85;94542.44;6161116;23;20177;-79
2023/11/11 07:42:41;;;;;;;14.43;8.73;;;;;;;5.59;85.86;94552.44;6161272;23;20179;-80
2023/11/11 07:45:08;;;;;;;6.27;5.10;;;;;;;5.46;86.36;94553.69;6159625;23;20154;-79
2023/11/11 07:47:34;;;;;;;4.37;3.03;;;;;;;5.37;86.15;94556.16;6159703;23;20672;-80
2023/11/11 07:50:00;;;;;;;5.57;4.27;;;;;;;5.45;85.92;94568.31;6135546;23;20216;-78
2023/11/11 07:52:26;;;;;;;6.67;3.57;;;;;;;5.49;85.09;94561.16;6134646;23;20154;-79
2023/11/11 07:54:52;;;;;;;8.77;6.50;;;;;;;5.48;84.85;94568.06;6159113;23;20489;-79
2023/11/11 07:57:18;;;;;;;7.50;5.87;;;;;;;5.51;85.11;94562.63;6184765;23;20162;-80
2023/11/11 07:59:44;;;;;;;6.83;4.33;;;;;;;5.47;84.98;94565.59;6135066;23;20186;-80
2023/11/11 08:02:12;;;;;;;4.53;3.40;;;;;;;5.44;85.48;94573.63;6134905;23;20192;-79
2023/11/11 08:04:38;;;;;;;4.83;3.70;;;;;;;5.44;85.28;94579.56;6137079;23;20172;-81
2023/11/11 08:07:04;;;;;;;6.07;4.27;;;;;;;5.55;84.69;94574.25;6159294;23;20158;-80
2023/11/11 08:09:31;;;;;;;6.13;4.40;;;;;;;5.72;84.47;94592.50;6154659;23;20161;-78
2023/11/11 08:11:57;;;;;;;6.63;4.20;;;;;;;5.78;83.88;94586.78;6131241;23;20150;-79
2023/11/11 08:14:22;;;;;;;4.87;3.80;;;;;;;5.81;83.64;94583.91;6132006;23;20172;-80
2023/11/11 08:16:47;;;;;;;3.83;3.40;;;;;;;5.80;83.42;94590.84;6131700;23;20170;-80
2023/11/11 08:19:13;;;;;;;4.57;3.37;;;;;;;5.61;83.58;94581.41;6158027;23;20158;-79
2023/11/11 08:21:38;;;;;;;6.00;3.70;;;;;;;5.69;83.25;94586.69;6157097;23;20241;-80
2023/11/11 08:24:05;;;;;;;3.70;3.17;;;;;;;5.57;83.51;94584.44;6157094;23;20162;-80
2023/11/11 08:26:30;;;;;;;5.63;3.80;;;;;;;5.58;82.77;94586.06;6132444;23;20162;-80
2023/11/11 08:28:56;;;;;;;6.73;3.70;;;;;;;5.55;83.18;94578.59;6175875;23;20149;-77
2023/11/11 08:31:21;;;;;;;4.87;4.13;;;;;;;5.67;82.63;94600.66;6161128;23;20197;-77
2023/11/11 08:33:47;;;;;;;6.93;3.53;;;;;;;5.73;82.68;94596.69;6212490;23;20166;-76
2023/11/11 08:36:12;;;;;;;5.17;3.10;;;;;;;5.72;82.51;94603.59;6186694;23;20174;-76
2023/11/11 08:38:37;;;;;;;4.67;2.97;;;;;;;5.92;81.72;94602.63;6162426;23;20147;-77
2023/11/11 08:41:03;;;;;;;4.87;2.97;;;;;;;5.80;82.15;94606.28;6186491;23;20190;-77
2023/11/11 08:43:28;;;;;;;3.97;2.83;;;;;;;5.65;81.63;94607.69;6186608;23;20370;-76
2023/11/11 08:45:57;;;;;;;2.67;2.37;;;;;;;5.98;80.72;94614.13;6161231;23;20223;-76
2023/11/11 08:48:23;;;;;;;3.77;2.70;;;;;;;5.80;80.68;94619.19;6187080;23;20146;-76
2023/11/11 08:50:48;;;;;;;5.00;3.07;;;;;;;5.95;79.56;94617.81;6186481;23;20202;-76
2023/11/11 08:53:14;;;;;;;2.60;2.27;;;;;;;5.72;79.28;94624.22;6160885;23;20158;-76
2023/11/11 08:55:39;;;;;;;3.77;2.77;;;;;;;5.77;79.24;94622.03;6159761;23;20177;-76
2023/11/11 08:58:05;;;;;;;4.60;2.40;;;;;;;6.09;78.66;94613.13;6151839;23;20168;-81
2023/11/11 09:00:32;;;;;;;6.43;3.27;;;;;;;6.33;78.06;94613.41;6157650;23;20188;-79
2023/11/11 09:02:58;;;;;;;12.67;6.17;;;;;;;6.33;78.00;94623.72;6183457;23;20221;-77
2023/11/11 09:05:23;;;;;;;7.67;4.43;;;;;;;6.42;77.61;94624.63;6132817;23;20166;-80
2023/11/11 09:07:49;;;;;;;11.47;8.33;;;;;;;6.43;77.12;94632.22;6133073;23;20158;-80
2023/11/11 09:10:14;;;;;;;4.97;3.00;;;;;;;5.91;77.96;94625.94;6157603;23;20173;-80
2023/11/11 09:12:40;;;;;;;6.40;4.40;;;;;;;6.31;78.05;94628.22;6133058;23;20645;-78
2023/11/11 09:15:05;;;;;;;4.97;3.90;;;;;;;6.09;78.42;94628.59;6133641;23;20166;-79
2023/11/11 09:17:31;;;;;;;3.83;3.13;;;;;;;6.30;77.99;94644.66;6135379;23;20622;-80
2023/11/11 09:19:57;;;;;;;4.10;2.87;;;;;;;6.07;78.24;94633.06;6159494;23;20185;-80
2023/11/11 09:22:25;;;;;;;4.33;2.43;;;;;;;6.31;77.85;94643.69;6157785;23;20170;-79
2023/11/11 09:24:51;;;;;;;4.40;3.10;;;;;;;6.08;77.47;94652.75;6157043;23;20158;-81
2023/11/11 09:27:17;;;;;;;11.83;7.47;;;;;;;6.23;76.96;94652.13;6160130;23;20186;-81
2023/11/11 09:29:42;;;;;;;6.50;4.37;;;;;;;6.33;76.95;94659.81;6135860;23;20556;-81
2023/11/11 09:32:09;;;;;;;6.53;4.47;;;;;;;6.44;76.95;94664.78;6135324;23;20151;-79
2023/11/11 09:34:35;;;;;;;3.37;3.07;;;;;;;6.35;76.81;94665.63;6160503;23;20470;-83
2023/11/11 09:37:00;;;;;;;3.63;2.90;;;;;;;6.32;76.96;94673.66;6159599;23;20169;-82
2023/11/11 09:39:27;;;;;;;4.43;2.87;;;;;;;6.29;77.29;94671.38;6160994;23;20163;-84
2023/11/11 09:41:52;;;;;;;5.20;3.73;;;;;;;6.70;76.05;94677.00;6160984;23;20179;-83
2023/11/11 09:44:18;;;;;;;4.83;3.73;;;;;;;6.74;75.23;94675.75;6162368;23;20217;-81
2023/11/11 09:46:57;;;;;;;3.13;2.83;;;;;;;6.80;75.16;94682.91;6137284;23;20178;-82
2023/11/11 09:49:22;;;;;;;4.83;2.50;;;;;;;7.00;74.53;94691.34;6163589;23;20733;-82
2023/11/11 09:51:49;;;;;;;4.50;2.33;;;;;;;6.48;74.88;94683.38;6162924;23;20147;-82
2023/11/11 09:54:15;;;;;;;4.20;2.43;;;;;;;6.73;74.33;94690.44;6161101;23;20236;-80
2023/11/11 09:56:43;;;;;;;2.33;2.00;;;;;;;6.49;75.11;94678.06;6137064;23;20190;-80
2023/11/11 09:59:10;;;;;;;5.00;3.80;;;;;;;6.64;74.62;94688.72;6165226;23;20151;-82
2023/11/11 10:01:37;;;;;;;3.13;2.43;;;;;;;6.31;74.21;94689.28;6160879;23;20270;-82
2023/11/11 10:04:03;;;;;;;4.03;2.87;;;;;;;6.71;73.66;94684.59;6160825;23;20165;-82
2023/11/11 10:06:28;;;;;;;5.13;3.40;;;;;;;6.95;73.04;94696.13;6160582;23;20518;-82
2023/11/11 10:08:54;;;;;;;2.80;2.37;;;;;;;6.77;72.49;94698.69;6163164;23;20158;-82
2023/11/11 10:11:20;;;;;;;3.87;2.50;;;;;;;6.98;71.87;94696.66;6140302;23;20238;-83
2023/11/11 10:13:46;;;;;;;3.03;2.53;;;;;;;7.16;72.39;94703.63;6164367;23;20155;-82
2023/11/11 10:16:13;;;;;;;4.77;2.37;;;;;;;7.04;73.72;94703.81;6137410;23;20169;-82
2023/11/11 10:18:40;;;;;;;5.47;3.00;;;;;;;7.15;72.13;94710.50;6186283;23;20205;-80
2023/11/11 10:21:09;;;;;;;5.03;3.10;;;;;;;7.33;72.26;94706.19;6162008;23;20179;-84
2023/11/11 10:23:36;;;;;;;3.70;2.87;;;;;;;7.45;71.61;94708.53;6138025;23;20169;-83
2023/11/11 10:26:03;;;;;;;3.30;1.90;;;;;;;7.33;71.28;94713.94;6136869;23;20600;-83
2023/11/11 10:28:30;;;;;;;3.43;2.20;;;;;;;7.57;70.86;94712.50;6136787;23;20182;-83
2023/11/11 10:31:04;;;;;;;2.50;2.00;;;;;;;7.75;70.54;94713.28;6160464;23;20705;-83
2023/11/11 10:33:29;;;;;;;4.90;1.93;;;;;;;7.61;70.65;94722.41;6160379;23;20578;-80
2023/11/11 10:35:55;;;;;;;1.57;1.43;;;;;;;7.59;69.21;94708.81;6160772;23;20158;-81
2023/11/11 10:38:20;;;;;;;7.23;2.40;;;;;;;7.60;69.24;94707.06;6138448;23;20208;-81
2023/11/11 10:40:46;;;;;;;1.90;1.70;;;;;;;7.41;69.08;94707.19;6136735;23;20190;-82
2023/11/11 10:43:14;;;;;;;3.37;1.90;;;;;;;7.43;69.94;94698.38;6137030;23;20171;-81
2023/11/11 10:45:40;;;;;;;4.50;2.10;;;;;;;7.56;69.73;94703.94;6158264;23;20154;-82
2023/11/11 10:48:07;;;;;;;3.33;2.20;;;;;;;7.83;69.46;94713.34;6184445;23;20164;-83
2023/11/11 10:50:33;;;;;;;3.33;2.47;;;;;;;7.77;68.66;94711.34;6133609;23;20181;-83
2023/11/11 10:52:59;;;;;;;2.27;1.90;;;;;;;7.64;67.50;94704.00;6185463;23;20165;-83
2023/11/11 10:55:26;;;;;;;2.70;2.00;;;;;;;7.79;68.64;94695.72;6136511;23;20530;-78
2023/11/11 10:57:52;;;;;;;2.90;2.37;;;;;;;7.77;67.72;94702.78;6136190;23;20197;-83
2023/11/11 11:00:20;;;;;;;3.30;2.17;;;;;;;8.09;67.15;94700.44;6139193;23;20179;-80
2023/11/11 11:02:47;;;;;;;3.40;2.20;;;;;;;7.79;67.09;94696.53;6161004;23;20654;-80
2023/11/11 11:05:18;;;;;;;2.70;1.80;;;;;;;7.82;67.28;94703.16;6136424;23;20391;-80
2023/11/11 11:07:48;;;;;;;3.20;2.73;;;;;;;7.90;67.41;94695.47;6136190;23;20843;-80
2023/11/11 11:10:32;;;;;;;3.37;2.00;;;;;;;8.37;66.22;94702.88;6135931;23;20205;-79
2023/11/11 11:13:03;;;;;;;2.50;2.13;;;;;;;7.84;66.36;94688.31;6160774;23;20198;-78
2023/11/11 11:15:28;;;;;;;4.87;2.77;;;;;;;7.83;65.61;94694.44;6161833;23;20166;-80
2023/11/11 11:17:54;;;;;;;3.37;2.70;;;;;;;8.15;65.24;94686.91;6162497;23;20162;-80
2023/11/11 11:20:25;;;;;;;2.13;1.90;;;;;;;8.12;64.54;94694.94;6135851;23;20228;-83
2023/11/11 11:22:57;;;;;;;2.53;2.13;;;;;;;7.99;64.35;94701.50;6136328;23;20182;-82
2023/11/11 11:25:44;;;;;;;3.57;2.30;;;;;;;7.69;65.08;94695.00;6136470;23;20546;-80
2023/11/11 11:28:14;;;;;;;4.43;2.13;;;;;;;8.21;64.50;94694.00;6142895;23;20166;-83
2023/11/11 11:30:50;;;;;;;2.40;2.00;;;;;;;8.40;64.55;94692.22;6197615;23;20185;-80
2023/11/11 11:33:20;;;;;;;4.57;2.20;;;;;;;7.87;65.54;94693.19;6173689;23;20146;-81
2023/11/11 11:46:04;;;;;;;2.70;1.80;;;;;;;7.65;66.84;94700.47;6013736;23;20224;-85